Time;durP1;ratioP1;P1;durP2;ratioP2;P2;SDS_P1;SDS_P2;PMS_P1;PMS_P2;Temp;Humidity;BMP_temperature;BMP_pressure;BME280_temperature;BME280_humidity;BME280_pressure;Samples;Min_cycle;Max_cycle;Signal;HPM_P1;HPM_P2
2024/02/01 00:00:52;;;;;;;;;;;6.80;1.00;;;;;;5100698;28;19908;-81
2024/02/01 00:03:46;;;;;;;;;;;6.80;1.00;;;;;;5096909;28;19969;-80
2024/02/01 00:06:16;;;;;;;;;;;6.90;1.00;;;;;;5106945;27;19907;-81
2024/02/01 00:08:52;;;;;;;;;;;7.00;1.00;;;;;;5104385;27;19912;-81
2024/02/01 00:11:22;;;;;;;;;;;7.00;1.00;;;;;;5102781;28;20007;-81
2024/02/01 00:13:58;;;;;;;;;;;7.00;1.00;;;;;;5107853;28;19907;-80
2024/02/01 00:16:28;;;;;;;;;;;7.00;1.00;;;;;;5107078;27;19911;-78
2024/02/01 00:18:58;;;;;;;;;;;7.10;1.00;;;;;;5099354;28;19918;-79
2024/02/01 00:21:23;;;;;;;;;;;7.20;1.00;;;;;;5098994;28;19974;-78
2024/02/01 00:24:20;;;;;;;;;;;7.20;1.00;;;;;;5107380;28;19912;-79
2024/02/01 00:26:58;;;;;;;;;;;7.20;1.00;;;;;;5107272;28;19953;-79
2024/02/01 00:29:24;;;;;;;;;;;7.30;1.00;;;;;;5093834;28;20375;-79
2024/02/01 00:32:04;;;;;;;;;;;7.30;1.00;;;;;;5102517;28;20009;-80
2024/02/01 00:34:32;;;;;;;;;;;7.40;1.00;;;;;;5114118;28;19999;-80
2024/02/01 00:36:58;;;;;;;;;;;7.40;1.00;;;;;;5100266;28;20378;-81
2024/02/01 00:39:24;;;;;;;;;;;7.50;1.00;;;;;;5098926;28;19938;-80
2024/02/01 00:41:58;;;;;;;;;;;7.50;1.00;;;;;;5103284;28;20418;-81
2024/02/01 00:44:28;;;;;;;;;;;7.50;1.00;;;;;;5093656;28;19912;-81
2024/02/01 00:46:58;;;;;;;;;;;7.50;1.00;;;;;;5101739;28;19923;-79
2024/02/01 00:52:34;;;;;;;;;;;7.60;1.00;;;;;;5097425;28;19915;-79
2024/02/01 00:55:05;;;;;;;;;;;7.70;1.00;;;;;;5098278;28;19947;-80
2024/02/01 00:57:40;;;;;;;;;;;7.70;1.00;;;;;;5107439;28;19929;-79
2024/02/01 01:00:22;;;;;;;;;;;7.80;1.00;;;;;;5098526;28;19912;-79
2024/02/01 01:02:52;;;;;;;;;;;7.80;1.00;;;;;;5094859;28;19961;-80
2024/02/01 01:05:29;;;;;;;;;;;7.80;1.00;;;;;;5114022;28;19908;-79
2024/02/01 01:07:55;;;;;;;;;;;7.80;1.00;;;;;;5106595;28;20010;-79
2024/02/01 01:10:28;;;;;;;;;;;8.00;1.00;;;;;;5109103;28;19947;-79
2024/02/01 01:12:58;;;;;;;;;;;8.00;1.00;;;;;;5093449;28;19916;-79
2024/02/01 01:15:28;;;;;;;;;;;;;;;;;;5093572;28;20244;-79
2024/02/01 01:18:16;;;;;;;;;;;7.90;1.00;;;;;;5093991;28;19912;-79
2024/02/01 01:20:41;;;;;;;;;;;7.90;1.00;;;;;;5107257;28;19912;-79
2024/02/01 01:23:07;;;;;;;;;;;8.00;1.00;;;;;;5098401;28;19964;-80
2024/02/01 01:25:34;;;;;;;;;;;8.10;1.00;;;;;;5093574;28;19935;-79
2024/02/01 01:28:10;;;;;;;;;;;8.10;1.00;;;;;;5106304;28;19915;-78
2024/02/01 01:30:46;;;;;;;;;;;8.00;1.00;;;;;;5098916;28;20263;-79
2024/02/01 01:33:22;;;;;;;;;;;8.00;1.00;;;;;;5100048;28;19919;-78
2024/02/01 01:36:10;;;;;;;;;;;8.00;1.00;;;;;;5101550;28;19908;-78
2024/02/01 01:38:46;;;;;;;;;;;8.00;1.00;;;;;;5101921;28;19950;-78
2024/02/01 01:41:22;;;;;;;;;;;8.10;1.00;;;;;;5101199;27;19912;-78
2024/02/01 01:43:52;;;;;;;;;;;8.10;1.00;;;;;;5097022;28;19916;-78
2024/02/01 01:46:18;;;;;;;;;;;8.00;1.00;;;;;;5099379;28;19919;-78
2024/02/01 01:48:58;;;;;;;;;;;8.10;1.00;;;;;;5106557;28;19911;-78
2024/02/01 01:51:28;;;;;;;;;;;8.10;1.00;;;;;;5098581;28;19916;-78
2024/02/01 01:53:56;;;;;;;;;;;8.10;1.00;;;;;;5107465;28;19918;-78
2024/02/01 01:56:22;;;;;;;;;;;8.10;1.00;;;;;;5103311;28;19919;-79
2024/02/01 01:58:49;;;;;;;;;;;8.10;1.00;;;;;;5110477;28;19915;-78
2024/02/01 02:01:23;;;;;;;;;;;8.20;1.00;;;;;;5098540;28;19916;-79
2024/02/01 02:03:58;;;;;;;;;;;8.10;1.00;;;;;;5116774;27;19966;-81
2024/02/01 02:06:24;;;;;;;;;;;8.10;1.00;;;;;;5095245;28;19916;-81
2024/02/01 02:08:52;;;;;;;;;;;8.10;1.00;;;;;;5100964;28;20001;-80
2024/02/01 02:11:28;;;;;;;;;;;8.10;1.00;;;;;;5114944;28;19919;-81
2024/02/01 02:13:58;;;;;;;;;;;8.10;1.00;;;;;;5102991;27;19983;-81
2024/02/01 02:16:28;;;;;;;;;;;8.10;1.00;;;;;;5116644;27;19912;-80
2024/02/01 02:18:54;;;;;;;;;;;8.10;1.00;;;;;;5101371;28;19920;-79
2024/02/01 02:21:21;;;;;;;;;;;8.10;1.00;;;;;;5105467;28;20417;-78
2024/02/01 02:23:49;;;;;;;;;;;8.20;1.00;;;;;;5095130;28;20267;-78
2024/02/01 02:26:22;;;;;;;;;;;8.20;1.00;;;;;;5107446;28;19918;-79
2024/02/01 02:29:10;;;;;;;;;;;8.10;1.00;;;;;;5100916;28;19999;-80
2024/02/01 02:31:58;;;;;;;;;;;8.20;1.00;;;;;;5103923;28;19908;-79
2024/02/01 02:34:28;;;;;;;;;;;8.20;1.00;;;;;;5103852;28;19912;-79
2024/02/01 02:36:58;;;;;;;;;;;8.10;1.00;;;;;;5095300;28;19916;-79
2024/02/01 02:39:28;;;;;;;;;;;8.10;1.00;;;;;;5102171;28;19923;-79
2024/02/01 02:42:04;;;;;;;;;;;;;;;;;;5106141;28;19939;-79
2024/02/01 02:44:34;;;;;;;;;;;8.20;1.00;;;;;;5105780;28;19933;-79
2024/02/01 02:47:11;;;;;;;;;;;8.20;1.00;;;;;;5113443;28;19912;-79
2024/02/01 02:49:40;;;;;;;;;;;8.30;1.00;;;;;;5100992;28;19912;-80
2024/02/01 02:52:28;;;;;;;;;;;8.20;1.00;;;;;;5098982;28;19908;-81
2024/02/01 02:54:58;;;;;;;;;;;8.30;1.00;;;;;;5095404;28;19912;-80
2024/02/01 02:57:28;;;;;;;;;;;8.30;1.00;;;;;;5099470;28;19912;-78
2024/02/01 02:59:58;;;;;;;;;;;8.20;1.00;;;;;;5098066;28;19916;-79
2024/02/01 03:02:34;;;;;;;;;;;8.30;1.00;;;;;;5096796;28;19944;-79
2024/02/01 03:05:35;;;;;;;;;;;8.40;1.00;;;;;;5104184;28;19908;-80
2024/02/01 03:08:05;;;;;;;;;;;8.30;1.00;;;;;;5103343;28;20419;-80
2024/02/01 03:10:34;;;;;;;;;;;8.30;1.00;;;;;;5112852;28;19912;-80
2024/02/01 03:13:00;;;;;;;;;;;8.30;1.00;;;;;;5094990;28;20348;-80
2024/02/01 03:15:52;;;;;;;;;;;8.30;1.00;;;;;;5110858;28;19914;-79
2024/02/01 03:18:28;;;;;;;;;;;8.30;1.00;;;;;;5102615;28;19912;-79
2024/02/01 03:20:55;;;;;;;;;;;8.30;1.00;;;;;;5102656;28;19955;-79
2024/02/01 03:23:21;;;;;;;;;;;8.20;1.00;;;;;;5099204;28;19916;-78
2024/02/01 03:25:58;;;;;;;;;;;8.30;1.00;;;;;;5101394;28;20240;-79
2024/02/01 03:28:30;;;;;;;;;;;8.20;1.00;;;;;;5101199;28;19912;-79
2024/02/01 03:30:58;;;;;;;;;;;8.20;1.00;;;;;;5105153;27;19912;-79
2024/02/01 03:33:38;;;;;;;;;;;8.20;1.00;;;;;;5112135;28;19912;-81
2024/02/01 03:36:28;;;;;;;;;;;8.20;1.00;;;;;;5101755;28;19912;-80
2024/02/01 03:38:59;;;;;;;;;;;8.20;1.00;;;;;;5093371;28;20016;-80
2024/02/01 03:41:28;;;;;;;;;;;8.30;1.00;;;;;;5108086;28;20363;-80
2024/02/01 03:43:58;;;;;;;;;;;8.30;1.00;;;;;;5094720;28;20353;-80
2024/02/01 03:46:28;;;;;;;;;;;8.30;1.00;;;;;;5099739;28;19912;-80
2024/02/01 03:48:58;;;;;;;;;;;8.30;1.00;;;;;;5102563;28;20428;-80
2024/02/01 03:51:34;;;;;;;;;;;;;;;;;;5095320;28;19913;-80
2024/02/01 03:54:16;;;;;;;;;;;8.30;1.00;;;;;;5095992;28;19914;-80
2024/02/01 03:57:04;;;;;;;;;;;8.40;1.00;;;;;;5103708;28;19912;-81
2024/02/01 03:59:34;;;;;;;;;;;8.20;1.00;;;;;;5096612;28;20002;-80
2024/02/01 04:02:04;;;;;;;;;;;8.20;1.00;;;;;;5100711;28;19916;-80
2024/02/01 04:04:30;;;;;;;;;;;8.20;1.00;;;;;;5106698;28;20382;-80
2024/02/01 04:06:58;;;;;;;;;;;8.20;1.00;;;;;;5107094;28;20363;-80
2024/02/01 04:09:28;;;;;;;;;;;8.10;1.00;;;;;;5126205;27;19912;-80
2024/02/01 04:11:58;;;;;;;;;;;8.10;1.00;;;;;;5094328;28;19965;-81
2024/02/01 04:14:24;;;;;;;;;;;7.80;1.00;;;;;;5104036;28;19916;-81
2024/02/01 04:16:59;;;;;;;;;;;7.80;1.00;;;;;;5094949;28;19916;-81
2024/02/01 04:19:24;;;;;;;;;;;7.80;1.00;;;;;;5102975;28;19919;-81
2024/02/01 04:21:58;;;;;;;;;;;7.80;1.00;;;;;;5112685;28;19924;-81
2024/02/01 04:24:28;;;;;;;;;;;7.80;1.00;;;;;;5105229;28;19919;-81
2024/02/01 04:26:58;;;;;;;;;;;;;;;;;;5104158;28;19922;-80
2024/02/01 04:29:28;;;;;;;;;;;7.60;1.00;;;;;;5098730;28;19916;-80
2024/02/01 04:31:58;;;;;;;;;;;7.60;1.00;;;;;;5106237;28;19912;-80
2024/02/01 04:34:28;;;;;;;;;;;7.60;1.00;;;;;;5101172;28;20007;-81
2024/02/01 04:36:55;;;;;;;;;;;7.50;1.00;;;;;;5099615;28;19962;-81
2024/02/01 04:39:22;;;;;;;;;;;7.50;1.00;;;;;;5114071;27;19908;-81
2024/02/01 04:41:57;;;;;;;;;;;7.60;1.00;;;;;;5097354;28;20018;-81
2024/02/01 04:44:23;;;;;;;;;;;7.50;1.00;;;;;;5098506;28;19919;-81
2024/02/01 04:46:48;;;;;;;;;;;7.50;1.00;;;;;;5102344;28;19912;-82
2024/02/01 04:49:28;;;;;;;;;;;7.50;1.00;;;;;;5104006;28;19935;-81
2024/02/01 04:51:58;;;;;;;;;;;7.50;1.00;;;;;;5101434;28;20012;-81
2024/02/01 04:54:28;;;;;;;;;;;7.50;1.00;;;;;;5114927;27;19916;-81
2024/02/01 04:56:55;;;;;;;;;;;7.40;1.00;;;;;;5093713;28;19912;-82
2024/02/01 04:59:21;;;;;;;;;;;7.40;1.00;;;;;;5101402;28;19912;-82
2024/02/01 05:02:04;;;;;;;;;;;7.30;1.40;;;;;;5095225;28;19927;-82
2024/02/01 05:04:29;;;;;;;;;;;7.30;3.70;;;;;;5097625;28;19954;-82
2024/02/01 05:07:28;;;;;;;;;;;7.30;5.80;;;;;;5110577;27;19912;-82
2024/02/01 05:09:58;;;;;;;;;;;7.10;9.90;;;;;;5096527;28;20010;-82
2024/02/01 05:12:28;;;;;;;;;;;7.10;17.20;;;;;;5105035;28;19923;-82
2024/02/01 05:14:58;;;;;;;;;;;7.00;24.10;;;;;;5098449;28;19916;-82
2024/02/01 05:17:58;;;;;;;;;;;7.00;28.60;;;;;;5113110;28;19923;-82
2024/02/01 05:20:28;;;;;;;;;;;7.00;37.10;;;;;;5111307;28;19908;-79
2024/02/01 05:22:54;;;;;;;;;;;7.00;40.40;;;;;;5102415;28;19924;-79
2024/02/01 05:25:28;;;;;;;;;;;6.90;37.00;;;;;;5102881;27;19934;-78
2024/02/01 05:27:58;;;;;;;;;;;6.90;40.30;;;;;;5097310;27;19964;-80
2024/02/01 05:30:28;;;;;;;;;;;7.00;40.30;;;;;;5125581;27;20006;-79
2024/02/01 05:33:00;;;;;;;;;;;7.00;37.10;;;;;;5115105;27;20000;-79
2024/02/01 05:35:29;;;;;;;;;;;6.90;40.30;;;;;;5117307;27;19908;-79
2024/02/01 05:38:02;;;;;;;;;;;7.00;37.10;;;;;;5119593;27;19911;-79
2024/02/01 05:40:29;;;;;;;;;;;7.00;37.10;;;;;;5116526;27;19908;-79
2024/02/01 05:42:54;;;;;;;;;;;7.00;37.10;;;;;;5105030;27;20011;-79
2024/02/01 05:45:22;;;;;;;;;;;7.00;40.40;;;;;;5118976;27;20004;-78
2024/02/01 05:47:58;;;;;;;;;;;7.10;37.20;;;;;;5112164;27;19919;-80
2024/02/01 05:50:28;;;;;;;;;;;7.10;37.20;;;;;;5107810;27;19912;-82
2024/02/01 05:52:58;;;;;;;;;;;7.20;40.60;;;;;;5111876;27;19919;-81
2024/02/01 05:55:46;;;;;;;;;;;7.20;37.30;;;;;;5115960;27;19918;-82
2024/02/01 06:01:17;;;;;;;;;;;7.10;37.20;;;;;;5118240;27;19923;-83
2024/02/01 06:04:10;;;;;;;;;;;7.20;40.70;;;;;;5110305;27;20528;-82
2024/02/01 06:06:58;;;;;;;;;;;7.10;37.20;;;;;;5119941;27;19933;-80
2024/02/01 06:09:34;;;;;;;;;;;7.10;40.50;;;;;;5119119;27;19919;-79
2024/02/01 06:12:16;;;;;;;;;;;7.20;37.30;;;;;;5109730;27;20037;-80
2024/02/01 06:14:58;;;;;;;;;;;7.20;40.70;;;;;;5121233;27;19915;-81
2024/02/01 06:17:28;;;;;;;;;;;7.10;40.60;;;;;;5133591;27;19952;-79
2024/02/01 06:19:58;;;;;;;;;;;7.20;37.30;;;;;;5118581;27;20107;-80
2024/02/01 06:22:28;;;;;;;;;;;7.20;37.40;;;;;;5123641;27;19930;-79
2024/02/01 06:24:54;;;;;;;;;;;7.20;37.30;;;;;;5119789;27;19923;-80
2024/02/01 06:27:22;;;;;;;;;;;7.20;40.70;;;;;;5109032;27;19909;-80
2024/02/01 06:29:52;;;;;;;;;;;7.20;40.50;;;;;;5118906;27;19912;-80
2024/02/01 06:32:28;;;;;;;;;;;7.20;37.30;;;;;;5115449;27;19908;-80
2024/02/01 06:35:05;;;;;;;;;;;7.10;37.20;;;;;;5120842;27;19988;-82
2024/02/01 06:37:39;;;;;;;;;;;7.20;42.50;;;;;;5125802;27;19912;-81
2024/02/01 06:40:48;;;;;;;;;;;7.30;46.20;;;;;;5103381;27;19966;-82
2024/02/01 06:43:31;;;;;;;;;;;7.30;46.20;;;;;;5117270;27;19964;-82
2024/02/01 06:46:49;;;;;;;;;;;7.30;48.00;;;;;;5125191;27;19915;-82
2024/02/01 06:49:39;;;;;;;;;;;7.50;37.50;;;;;;5109516;28;19912;-82
2024/02/01 06:54:53;;;;;;;;;;;7.40;40.70;;;;;;5102290;28;19912;-80
2024/02/01 06:57:44;;;;;;;;;;;7.40;37.40;;;;;;5112349;28;19957;-80
2024/02/01 07:00:51;;;;;;;;;;;7.50;40.80;;;;;;5099878;28;19908;-79
2024/02/01 07:06:35;;;;;;;;;;;7.60;37.60;;;;;;5095241;28;20054;-79
2024/02/01 07:09:27;;;;;;;;;;;7.50;40.70;;;;;;5095138;28;19912;-79
2024/02/01 07:12:09;;;;;;;;;;;7.50;37.50;;;;;;5096959;28;19958;-80
2024/02/01 07:14:48;;;;;;;;;;;7.50;40.80;;;;;;5097480;28;19956;-78
2024/02/01 07:17:28;;;;;;;;;;;7.40;37.50;;;;;;5103552;28;19939;-79
2024/02/01 07:20:03;;;;;;;;;;;7.40;40.80;;;;;;5096305;28;20010;-79
2024/02/01 07:25:37;;;;;;;;;;;7.40;44.80;;;;;;5107872;28;19977;-80
2024/02/01 07:57:36;;;;;;;;;;;8.00;38.00;;;;;;5105114;28;19911;-84
2024/02/01 08:00:05;;;;;;;;;;;8.10;38.00;;;;;;5063548;27;19938;-86
2024/02/01 08:08:12;;;;;;;;;;;8.10;38.00;;;;;;5009765;28;19967;-84
2024/02/01 08:10:58;;;;;;;;;;;8.10;41.20;;;;;;5013161;28;19913;-84
2024/02/01 08:19:20;;;;;;;;;;;8.40;41.60;;;;;;5012140;28;19917;-84
2024/02/01 08:24:54;;;;;;;;;;;8.40;38.30;;;;;;5011920;28;19917;-84
2024/02/01 08:27:28;;;;;;;;;;;8.60;32.40;;;;;;5012267;28;19932;-84
2024/02/01 08:30:12;;;;;;;;;;;8.60;34.10;;;;;;5026372;28;19922;-83
2024/02/01 08:35:41;;;;;;;;;;;8.60;30.80;;;;;;5029935;28;20348;-79
2024/02/01 08:38:28;;;;;;;;;;;8.70;25.40;;;;;;5035371;28;20008;-78
2024/02/01 08:40:54;;;;;;;;;;;8.60;24.40;;;;;;5041212;28;19912;-78
2024/02/01 08:43:20;;;;;;;;;;;8.60;26.70;;;;;;5103368;27;19915;-78
2024/02/01 08:45:46;;;;;;;;;;;8.70;28.90;;;;;;5116162;27;19919;-78
2024/02/01 08:48:11;;;;;;;;;;;8.80;29.10;;;;;;5135228;27;19912;-78
2024/02/01 08:54:10;;;;;;;;;;;9.00;22.60;;;;;;5105637;27;19981;-84
2024/02/01 08:56:36;;;;;;;;;;;8.90;21.60;;;;;;5113725;27;19936;-84
2024/02/01 08:59:23;;;;;;;;;;;8.90;24.20;;;;;;5122668;27;20004;-84
2024/02/01 09:01:48;;;;;;;;;;;8.90;24.30;;;;;;5116720;27;19920;-83
2024/02/01 09:04:23;;;;;;;;;;;8.80;23.50;;;;;;5112416;27;20271;-85
2024/02/01 09:06:53;;;;;;;;;;;8.70;28.70;;;;;;5126140;27;19964;-84
2024/02/01 09:09:35;;;;;;;;;;;8.80;28.20;;;;;;5121209;27;19912;-84
2024/02/01 09:15:05;;;;;;;;;;;8.90;23.90;;;;;;5116750;28;19914;-84
2024/02/01 09:17:35;;;;;;;;;;;8.90;26.00;;;;;;5105224;28;20006;-84
2024/02/01 09:20:17;;;;;;;;;;;8.80;26.00;;;;;;5115533;28;19919;-84
2024/02/01 09:22:53;;;;;;;;;;;8.90;27.50;;;;;;5107581;27;20298;-79
2024/02/01 09:25:20;;;;;;;;;;;9.10;25.90;;;;;;5098012;27;19912;-79
2024/02/01 09:27:47;;;;;;;;;;;9.20;30.10;;;;;;5100274;28;20022;-79
2024/02/01 09:30:45;;;;;;;;;;;9.30;18.50;;;;;;5104823;28;19913;-79
2024/02/01 09:36:14;;;;;;;;;;;9.30;19.50;;;;;;5106757;28;19922;-79
2024/02/01 09:38:40;;;;;;;;;;;9.70;17.50;;;;;;5104422;28;20283;-78
2024/02/01 09:44:09;;;;;;;;;;;9.80;12.40;;;;;;5102952;28;19922;-79
2024/02/01 09:46:36;;;;;;;;;;;9.80;4.60;;;;;;5104108;28;19911;-78
2024/02/01 09:49:02;;;;;;;;;;;10.00;3.20;;;;;;5101808;28;20389;-78
2024/02/01 09:51:46;;;;;;;;;;;10.10;3.50;;;;;;5116247;28;19915;-79
2024/02/01 09:54:16;;;;;;;;;;;10.30;1.00;;;;;;5110749;27;19908;-78
2024/02/01 09:56:42;;;;;;;;;;;10.30;1.00;;;;;;5096725;28;19908;-78
2024/02/01 09:59:34;;;;;;;;;;;10.30;1.00;;;;;;5099985;28;19931;-78
2024/02/01 10:02:05;;;;;;;;;;;10.40;1.00;;;;;;5109592;28;19916;-78
2024/02/01 10:04:33;;;;;;;;;;;10.50;1.00;;;;;;5116311;27;19954;-79
2024/02/01 10:06:58;;;;;;;;;;;10.50;1.00;;;;;;5116978;27;19922;-83
2024/02/01 10:09:51;;;;;;;;;;;10.50;1.00;;;;;;5108278;27;19916;-83
2024/02/01 10:12:18;;;;;;;;;;;10.40;1.00;;;;;;5110446;27;19945;-83
2024/02/01 10:14:43;;;;;;;;;;;10.40;1.00;;;;;;5106087;27;20383;-83
2024/02/01 10:17:28;;;;;;;;;;;10.50;1.00;;;;;;5105773;27;19954;-83
2024/02/01 10:19:58;;;;;;;;;;;10.40;1.00;;;;;;5110058;27;19937;-83
2024/02/01 10:22:32;;;;;;;;;;;10.20;1.00;;;;;;5121274;27;19919;-78
2024/02/01 10:24:58;;;;;;;;;;;10.30;1.00;;;;;;5118847;27;19907;-78
2024/02/01 10:27:28;;;;;;;;;;;10.40;1.00;;;;;;5126357;27;19915;-78
2024/02/01 10:30:09;;;;;;;;;;;10.50;1.00;;;;;;5107878;27;19990;-77
2024/02/01 10:32:45;;;;;;;;;;;10.50;1.00;;;;;;5116580;27;20275;-78
2024/02/01 10:35:18;;;;;;;;;;;10.50;1.00;;;;;;5129748;27;19912;-78
2024/02/01 10:37:49;;;;;;;;;;;10.50;1.00;;;;;;5125472;27;19934;-82
2024/02/01 10:40:40;;;;;;;;;;;10.40;1.00;;;;;;5115206;27;19995;-82
2024/02/01 10:43:17;;;;;;;;;;;10.50;1.00;;;;;;5104498;27;19920;-82
2024/02/01 10:45:45;;;;;;;;;;;10.60;1.00;;;;;;5124926;27;19914;-82
2024/02/01 10:48:12;;;;;;;;;;;10.70;1.00;;;;;;5125274;27;20007;-82
2024/02/01 10:50:40;;;;;;;;;;;10.90;1.00;;;;;;5122577;27;20352;-82
2024/02/01 10:53:11;;;;;;;;;;;10.90;1.00;;;;;;5126518;27;20374;-78
2024/02/01 10:55:39;;;;;;;;;;;11.00;1.00;;;;;;5111720;28;19912;-78
2024/02/01 10:58:28;;;;;;;;;;;11.20;1.00;;;;;;5124457;27;19916;-78
2024/02/01 11:00:54;;;;;;;;;;;11.30;1.00;;;;;;5114974;27;19908;-78
2024/02/01 11:03:46;;;;;;;;;;;11.40;1.00;;;;;;5125179;27;20092;-79
2024/02/01 11:06:25;;;;;;;;;;;11.40;1.00;;;;;;5108782;28;19977;-78
2024/02/01 11:08:54;;;;;;;;;;;11.50;1.00;;;;;;5115788;27;19954;-82
2024/02/01 11:11:37;;;;;;;;;;;11.70;1.00;;;;;;5123846;27;20351;-82
2024/02/01 11:14:17;;;;;;;;;;;11.60;1.00;;;;;;5123357;27;20049;-82
2024/02/01 11:16:48;;;;;;;;;;;12.10;1.00;;;;;;5110652;28;19911;-83
2024/02/01 11:22:18;;;;;;;;;;;12.50;1.00;;;;;;5102003;28;19964;-78
2024/02/01 11:24:44;;;;;;;;;;;12.60;1.00;;;;;;5094846;28;20412;-79
2024/02/01 11:27:17;;;;;;;;;;;12.60;1.00;;;;;;5102091;28;19998;-78
2024/02/01 11:29:56;;;;;;;;;;;12.70;1.00;;;;;;5108205;28;19912;-78
2024/02/01 11:32:23;;;;;;;;;;;12.80;1.00;;;;;;5094840;28;19908;-78
2024/02/01 11:34:59;;;;;;;;;;;12.70;1.00;;;;;;5093920;28;19919;-78
2024/02/01 11:41:04;;;;;;;;;;;12.70;1.00;;;;;;5094819;28;19950;-82
2024/02/01 11:43:58;;;;;;;;;;;12.90;1.00;;;;;;5101880;28;19985;-81
2024/02/01 11:46:29;;;;;;;;;;;13.10;1.00;;;;;;5105510;28;19908;-80
2024/02/01 11:48:55;;;;;;;;;;;13.10;1.00;;;;;;5094654;28;20371;-81
2024/02/01 11:51:24;;;;;;;;;;;12.90;1.00;;;;;;5114680;28;19961;-81
2024/02/01 11:54:27;;;;;;;;;;;12.60;1.00;;;;;;5115119;28;19907;-77
2024/02/01 11:56:55;;;;;;;;;;;12.60;1.00;;;;;;5106516;28;19914;-78
2024/02/01 11:59:23;;;;;;;;;;;12.60;1.00;;;;;;5111641;28;19922;-78
2024/02/01 12:02:16;;;;;;;;;;;12.50;1.00;;;;;;5101945;27;20453;-78
2024/02/01 12:04:46;;;;;;;;;;;12.50;1.00;;;;;;5104139;28;19908;-78
2024/02/01 12:07:14;;;;;;;;;;;12.30;1.00;;;;;;5114683;28;19908;-78
2024/02/01 12:09:47;;;;;;;;;;;12.40;1.00;;;;;;5108499;28;19990;-77
2024/02/01 12:12:23;;;;;;;;;;;12.20;1.00;;;;;;5096536;28;20007;-77
2024/02/01 12:14:58;;;;;;;;;;;12.00;1.00;;;;;;5092726;28;19909;-78
2024/02/01 12:17:45;;;;;;;;;;;12.00;1.00;;;;;;5099932;28;19991;-77
2024/02/01 12:20:17;;;;;;;;;;;12.00;1.00;;;;;;5101349;28;19912;-78
2024/02/01 12:22:48;;;;;;;;;;;11.90;1.00;;;;;;5092943;28;19924;-80
2024/02/01 12:25:16;;;;;;;;;;;11.90;1.00;;;;;;5093523;28;20134;-81
2024/02/01 12:27:58;;;;;;;;;;;11.90;1.00;;;;;;5105649;28;19911;-80
2024/02/01 12:30:46;;;;;;;;;;;11.90;1.00;;;;;;5094743;28;19912;-81
2024/02/01 12:33:23;;;;;;;;;;;11.80;1.00;;;;;;5098941;28;19912;-80
2024/02/01 12:35:49;;;;;;;;;;;11.90;1.00;;;;;;5095007;28;19916;-81
2024/02/01 12:38:48;;;;;;;;;;;11.90;1.00;;;;;;5092643;28;19912;-78
2024/02/01 12:41:16;;;;;;;;;;;11.90;1.00;;;;;;5104513;28;19939;-78
2024/02/01 12:43:52;;;;;;;;;;;11.90;1.00;;;;;;5102530;28;19912;-79
2024/02/01 12:46:42;;;;;;;;;;;11.80;1.00;;;;;;5103489;28;19912;-78
2024/02/01 12:49:22;;;;;;;;;;;11.70;1.00;;;;;;5100546;28;20370;-78
2024/02/01 12:51:48;;;;;;;;;;;11.70;1.00;;;;;;5102516;28;19921;-77
2024/02/01 12:54:17;;;;;;;;;;;11.60;1.00;;;;;;5098082;28;19912;-78
2024/02/01 12:56:47;;;;;;;;;;;11.70;1.00;;;;;;5108171;28;19911;-78
2024/02/01 12:59:40;;;;;;;;;;;11.60;1.00;;;;;;5104715;28;19912;-83
2024/02/01 13:02:11;;;;;;;;;;;11.50;1.00;;;;;;5108799;28;19966;-78
2024/02/01 13:04:39;;;;;;;;;;;11.40;1.00;;;;;;5112604;28;19908;-79
2024/02/01 13:07:28;;;;;;;;;;;11.40;1.00;;;;;;5096700;28;19916;-80
2024/02/01 13:09:54;;;;;;;;;;;11.30;1.00;;;;;;5101692;28;20003;-79
2024/02/01 13:12:29;;;;;;;;;;;11.30;1.00;;;;;;5099580;28;20003;-79
2024/02/01 13:18:22;;;;;;;;;;;11.20;1.00;;;;;;5098227;28;19962;-79
2024/02/01 13:21:11;;;;;;;;;;;11.20;1.00;;;;;;5095866;28;20302;-79
2024/02/01 13:23:47;;;;;;;;;;;11.30;1.00;;;;;;5101471;28;19967;-78
2024/02/01 13:26:22;;;;;;;;;;;11.40;1.00;;;;;;5106962;28;19916;-78
2024/02/01 13:28:49;;;;;;;;;;;11.30;1.00;;;;;;5108288;27;20007;-79
2024/02/01 13:31:38;;;;;;;;;;;11.30;1.00;;;;;;5124916;27;19911;-78
2024/02/01 13:34:10;;;;;;;;;;;11.10;1.00;;;;;;5097619;28;20310;-79
2024/02/01 13:36:36;;;;;;;;;;;11.00;1.00;;;;;;5112376;28;19912;-78
2024/02/01 13:39:05;;;;;;;;;;;10.90;1.00;;;;;;5115363;27;19915;-82
2024/02/01 13:41:34;;;;;;;;;;;10.90;1.00;;;;;;5114921;28;19912;-83
2024/02/01 13:44:11;;;;;;;;;;;10.90;1.00;;;;;;5120619;27;20010;-83
2024/02/01 13:46:38;;;;;;;;;;;10.90;1.00;;;;;;5103276;28;19912;-83
2024/02/01 13:49:04;;;;;;;;;;;10.90;1.00;;;;;;5096853;27;19908;-83
2024/02/01 13:54:32;;;;;;;;;;;10.90;1.00;;;;;;5096751;28;19989;-83
2024/02/01 13:56:58;;;;;;;;;;;11.00;1.00;;;;;;5102305;28;20367;-81
2024/02/01 13:59:24;;;;;;;;;;;11.00;1.00;;;;;;5100987;28;19999;-81
2024/02/01 14:01:59;;;;;;;;;;;11.00;1.00;;;;;;5110844;28;19947;-81
2024/02/01 14:04:46;;;;;;;;;;;11.10;1.00;;;;;;5096645;28;19926;-82
2024/02/01 14:10:15;;;;;;;;;;;;;;;;;;5113065;28;19922;-86
2024/02/01 14:16:10;;;;;;;;;;;11.00;1.00;;;;;;5104085;28;19918;-81
2024/02/01 14:18:41;;;;;;;;;;;11.00;1.00;;;;;;5106572;28;20020;-82
2024/02/01 14:21:17;;;;;;;;;;;10.90;1.00;;;;;;5099690;28;19918;-80
2024/02/01 14:23:53;;;;;;;;;;;10.80;1.00;;;;;;5103118;28;19962;-81
2024/02/01 14:26:40;;;;;;;;;;;10.80;1.00;;;;;;5116667;28;19973;-81
2024/02/01 14:29:11;;;;;;;;;;;10.70;1.00;;;;;;5099638;28;19919;-77
2024/02/01 14:31:41;;;;;;;;;;;10.70;1.00;;;;;;5108075;28;19934;-79
2024/02/01 14:34:23;;;;;;;;;;;10.70;1.00;;;;;;5104030;28;19908;-79
2024/02/01 14:36:53;;;;;;;;;;;10.70;1.00;;;;;;5120605;27;19908;-78
2024/02/01 14:39:29;;;;;;;;;;;10.60;1.00;;;;;;5098936;28;19916;-78
2024/02/01 14:42:05;;;;;;;;;;;10.50;1.00;;;;;;5106202;28;19919;-80
2024/02/01 14:47:36;;;;;;;;;;;10.50;1.00;;;;;;5098060;28;19931;-80
2024/02/01 14:50:01;;;;;;;;;;;10.40;1.00;;;;;;5105488;28;19922;-79
2024/02/01 14:52:27;;;;;;;;;;;10.30;1.00;;;;;;5106395;28;19916;-77
2024/02/01 14:54:55;;;;;;;;;;;10.30;1.00;;;;;;5100447;28;19961;-75
2024/02/01 14:57:29;;;;;;;;;;;10.30;1.00;;;;;;5103859;28;19912;-76
2024/02/01 14:59:54;;;;;;;;;;;10.20;1.00;;;;;;5105011;28;19908;-77
2024/02/01 15:02:20;;;;;;;;;;;10.10;1.00;;;;;;5099157;28;19998;-78
2024/02/01 15:04:45;;;;;;;;;;;10.10;1.00;;;;;;5100986;28;20003;-76
2024/02/01 15:07:11;;;;;;;;;;;10.00;1.00;;;;;;5100872;27;19916;-76
2024/02/01 15:09:41;;;;;;;;;;;9.90;1.00;;;;;;5096107;28;19908;-76
2024/02/01 15:12:17;;;;;;;;;;;9.80;1.00;;;;;;5101760;28;19916;-76
2024/02/01 15:14:42;;;;;;;;;;;9.80;1.00;;;;;;5115608;27;19951;-76
2024/02/01 15:17:12;;;;;;;;;;;9.80;1.00;;;;;;5096171;28;19930;-76
2024/02/01 15:19:41;;;;;;;;;;;9.70;1.00;;;;;;5108728;28;19914;-78
2024/02/01 15:22:07;;;;;;;;;;;9.70;1.00;;;;;;5108208;28;19916;-77
2024/02/01 15:24:33;;;;;;;;;;;9.70;1.00;;;;;;5095043;28;20011;-76
2024/02/01 15:27:01;;;;;;;;;;;9.70;1.00;;;;;;5100930;28;20390;-77
2024/02/01 15:29:30;;;;;;;;;;;9.70;1.00;;;;;;5094880;28;19908;-77
2024/02/01 15:34:59;;;;;;;;;;;9.60;1.00;;;;;;5106911;28;19955;-77
2024/02/01 15:37:35;;;;;;;;;;;9.40;1.00;;;;;;5106648;28;19908;-76
2024/02/01 15:40:35;;;;;;;;;;;9.40;1.00;;;;;;5095158;28;19915;-77
2024/02/01 15:43:17;;;;;;;;;;;9.30;1.00;;;;;;5099427;28;20018;-77
2024/02/01 15:45:59;;;;;;;;;;;9.20;1.00;;;;;;5107166;28;19961;-77
2024/02/01 15:48:29;;;;;;;;;;;9.10;1.00;;;;;;5108712;28;20262;-77
2024/02/01 15:51:06;;;;;;;;;;;9.10;1.00;;;;;;5097747;28;19943;-77
2024/02/01 15:53:32;;;;;;;;;;;9.00;1.00;;;;;;5098259;28;19999;-77
2024/02/01 15:55:58;;;;;;;;;;;8.90;1.00;;;;;;5104750;28;19911;-76
2024/02/01 15:58:24;;;;;;;;;;;8.80;1.00;;;;;;5102299;28;20057;-76
2024/02/01 16:00:53;;;;;;;;;;;8.60;1.00;;;;;;5109471;28;19980;-75
2024/02/01 16:03:30;;;;;;;;;;;8.60;1.00;;;;;;5106629;27;19919;-75
2024/02/01 16:06:12;;;;;;;;;;;8.50;1.00;;;;;;5094488;28;20003;-75
2024/02/01 16:08:43;;;;;;;;;;;8.40;1.00;;;;;;5094696;28;19908;-76
2024/02/01 16:11:29;;;;;;;;;;;8.30;1.00;;;;;;5106010;28;19907;-75
2024/02/01 16:13:57;;;;;;;;;;;8.20;1.00;;;;;;5105313;28;19920;-76
2024/02/01 16:16:31;;;;;;;;;;;8.00;1.00;;;;;;5108816;28;20244;-75
2024/02/01 16:18:57;;;;;;;;;;;7.90;1.00;;;;;;5105179;28;19998;-75
2024/02/01 16:21:26;;;;;;;;;;;7.90;1.00;;;;;;5112542;28;20307;-75
2024/02/01 16:23:53;;;;;;;;;;;7.80;1.00;;;;;;5106994;28;19926;-76
2024/02/01 16:26:23;;;;;;;;;;;7.70;1.00;;;;;;5100471;28;19918;-75
2024/02/01 16:28:48;;;;;;;;;;;7.50;1.00;;;;;;5096701;28;19912;-88
2024/02/01 16:31:18;;;;;;;;;;;7.50;1.00;;;;;;5101853;28;19908;-73
2024/02/01 16:33:50;;;;;;;;;;;7.40;1.00;;;;;;5105562;28;19912;-74
2024/02/01 16:36:22;;;;;;;;;;;7.30;1.00;;;;;;5109271;28;19912;-73
2024/02/01 16:38:49;;;;;;;;;;;7.10;1.00;;;;;;5107016;28;19974;-74
2024/02/01 16:41:27;;;;;;;;;;;7.00;1.00;;;;;;5104798;28;20284;-75
2024/02/01 16:43:53;;;;;;;;;;;7.00;1.00;;;;;;5104150;28;19939;-74
2024/02/01 16:46:34;;;;;;;;;;;6.80;1.00;;;;;;5097219;28;19912;-74
2024/02/01 16:49:00;;;;;;;;;;;6.70;1.00;;;;;;5102739;28;19930;-75
2024/02/01 16:51:41;;;;;;;;;;;6.50;1.00;;;;;;5097966;28;20344;-74
2024/02/01 16:54:06;;;;;;;;;;;6.40;1.00;;;;;;5101993;28;19918;-74
2024/02/01 16:56:44;;;;;;;;;;;6.30;1.00;;;;;;5108980;28;19911;-76